Time;durP1;ratioP1;P1;durP2;ratioP2;P2;SDS_P1;SDS_P2;PMS_P1;PMS_P2;Temp;Humidity;BMP_temperature;BMP_pressure;BME280_temperature;BME280_humidity;BME280_pressure;Samples;Min_cycle;Max_cycle;Signal;HPM_P1;HPM_P2
2022/11/27 00:01:40;;;;;;;;;23.75;21.00;;;;;6.85;80.51;102004.94;5053564;28;45429;-65
2022/11/27 00:04:07;;;;;;;;;24.00;19.00;;;;;6.98;80.61;102049.72;5054921;28;45392;-66
2022/11/27 00:06:33;;;;;;;;;25.00;22.75;;;;;7.06;81.04;102047.41;5056899;28;45490;-66
2022/11/27 00:09:00;;;;;;;;;25.25;20.25;;;;;7.04;80.98;102042.97;5073088;28;45575;-68
2022/11/27 00:11:28;;;;;;;;;29.50;20.50;;;;;7.00;81.16;102040.25;5057598;28;45497;-68
2022/11/27 00:13:54;;;;;;;;;17.50;16.75;;;;;6.99;81.11;102040.19;5057939;28;45280;-66
2022/11/27 00:16:21;;;;;;;;;25.50;21.50;;;;;6.90;80.52;102035.50;5072370;28;46569;-66
2022/11/27 00:18:47;;;;;;;;;20.00;16.75;;;;;7.01;80.99;102038.53;5038872;28;45364;-66
2022/11/27 00:21:21;;;;;;;;;24.75;17.50;;;;;6.98;80.50;102041.91;5069120;27;45383;-67
2022/11/27 00:23:47;;;;;;;;;27.25;22.25;;;;;6.98;81.19;102028.88;5053101;28;45683;-65
2022/11/27 00:26:13;;;;;;;;;25.75;22.00;;;;;7.03;80.95;102026.47;5052817;28;46192;-66
2022/11/27 00:28:38;;;;;;;;;25.75;17.00;;;;;7.13;80.78;102025.97;5051101;28;45443;-66
2022/11/27 00:31:11;;;;;;;;;19.25;17.00;;;;;7.08;79.86;102011.88;5051805;28;45536;-67
2022/11/27 00:33:36;;;;;;;;;21.75;19.00;;;;;7.08;80.12;102022.31;5055382;28;45414;-66
2022/11/27 00:36:04;;;;;;;;;27.50;21.50;;;;;7.01;80.27;102013.38;5057445;28;46243;-66
2022/11/27 00:38:30;;;;;;;;;16.50;12.75;;;;;7.06;80.62;102002.22;5057682;28;45519;-66
2022/11/27 00:41:17;;;;;;;;;21.50;20.00;;;;;7.12;80.25;102005.97;5052729;28;45328;-66
2022/11/27 00:43:44;;;;;;;;;20.25;18.25;;;;;7.19;80.18;102002.75;5053159;28;45412;-65
2022/11/27 00:46:11;;;;;;;;;20.00;16.25;;;;;7.17;79.76;102004.41;5052871;28;45598;-66
2022/11/27 00:48:37;;;;;;;;;21.75;20.00;;;;;7.17;79.85;101995.69;5053179;28;46031;-66
2022/11/27 00:51:05;;;;;;;;;18.75;17.25;;;;;7.14;79.25;102003.38;5052531;28;45447;-66
2022/11/27 00:53:32;;;;;;;;;22.50;19.25;;;;;7.08;79.85;101988.44;5057651;28;45500;-66
2022/11/27 00:55:58;;;;;;;;;18.25;18.00;;;;;7.06;80.00;101965.75;5055419;28;46724;-66
2022/11/27 00:58:24;;;;;;;;;23.75;20.75;;;;;7.17;79.67;101980.94;5054401;28;45357;-66
2022/11/27 01:00:58;;;;;;;;;22.25;18.25;;;;;7.19;79.22;101992.31;5052412;28;45613;-66
2022/11/27 01:03:25;;;;;;;;;20.75;17.00;;;;;7.16;79.42;101971.34;5052915;28;45457;-66
2022/11/27 01:05:51;;;;;;;;;20.75;20.75;;;;;7.10;79.31;101965.94;5052216;28;46531;-65
2022/11/27 01:08:18;;;;;;;;;20.50;18.00;;;;;7.08;79.52;101964.97;5052302;28;45313;-67
2022/11/27 01:10:52;;;;;;;;;22.75;18.75;;;;;7.05;79.59;101969.19;5041074;28;45570;-67
2022/11/27 01:13:18;;;;;;;;;22.00;18.00;;;;;6.94;79.90;101953.19;5036203;28;45663;-67
2022/11/27 01:15:44;;;;;;;;;17.00;16.50;;;;;7.05;79.96;101967.50;5054721;27;46919;-67
2022/11/27 01:18:11;;;;;;;;;18.25;18.25;;;;;7.08;79.39;101962.38;5053235;28;45349;-68
2022/11/27 01:20:39;;;;;;;;;24.00;21.50;;;;;7.05;79.64;101961.38;5050056;28;45365;-66
2022/11/27 01:23:06;;;;;;;;;20.50;19.00;;;;;7.11;79.57;101966.81;5055144;28;45732;-66
2022/11/27 01:25:35;;;;;;;;;23.00;17.50;;;;;7.11;79.72;101970.28;5055840;28;46433;-67
2022/11/27 01:28:00;;;;;;;;;17.25;13.00;;;;;7.14;79.90;101964.31;5041970;28;45527;-67
2022/11/27 01:30:26;;;;;;;;;18.75;15.50;;;;;7.21;78.83;101975.03;5054617;28;45291;-67
2022/11/27 01:32:51;;;;;;;;;21.50;20.25;;;;;7.12;79.62;101969.47;5056589;28;45330;-67
2022/11/27 01:35:17;;;;;;;;;24.25;21.00;;;;;7.17;79.49;101961.84;5056009;28;45763;-66
2022/11/27 01:37:43;;;;;;;;;19.00;18.00;;;;;7.14;78.97;101957.41;5051381;28;45629;-66
2022/11/27 01:40:08;;;;;;;;;22.00;17.00;;;;;7.09;79.23;101948.50;5054445;28;45280;-65
2022/11/27 01:42:34;;;;;;;;;20.25;15.50;;;;;7.11;79.43;101948.56;5060653;28;45408;-66
2022/11/27 01:44:59;;;;;;;;;19.00;13.25;;;;;7.02;79.42;101938.69;5054345;28;47503;-66
2022/11/27 01:47:43;;;;;;;;;14.75;14.50;;;;;7.14;79.31;101936.56;5054383;28;45773;-65
2022/11/27 01:50:14;;;;;;;;;17.25;16.00;;;;;7.16;79.07;101928.78;5055978;28;45386;-66
2022/11/27 01:52:46;;;;;;;;;17.00;14.50;;;;;7.27;78.65;101944.78;5054854;28;45329;-65
2022/11/27 01:55:45;;;;;;;;;18.25;14.50;;;;;7.28;78.69;101946.56;5055923;28;45520;-65
2022/11/27 01:58:14;;;;;;;;;22.00;17.25;;;;;7.27;78.86;101940.47;5058524;28;45389;-65
2022/11/27 02:00:40;;;;;;;;;17.50;16.50;;;;;7.25;79.10;101938.63;5058512;28;45669;-65
2022/11/27 02:03:05;;;;;;;;;21.75;16.25;;;;;7.19;78.95;101940.22;5057930;28;45531;-65
2022/11/27 02:05:32;;;;;;;;;18.25;15.75;;;;;7.28;78.97;101929.19;5057741;27;45557;-65
2022/11/27 02:08:04;;;;;;;;;15.75;14.75;;;;;7.16;78.93;101920.97;5060137;28;45521;-66
2022/11/27 02:10:48;;;;;;;;;18.00;14.00;;;;;7.18;79.04;101928.00;5055346;28;45353;-65
2022/11/27 02:13:24;;;;;;;;;17.00;14.25;;;;;7.25;78.95;101917.78;5057261;28;45282;-67
2022/11/27 02:15:55;;;;;;;;;16.75;13.50;;;;;7.18;78.66;101909.75;5058153;28;45978;-67
2022/11/27 02:18:27;;;;;;;;;23.75;15.25;;;;;7.11;79.26;101915.59;5047739;28;45294;-67
2022/11/27 02:21:04;;;;;;;;;18.75;14.25;;;;;7.13;79.15;101916.53;5048975;28;45379;-66
2022/11/27 02:24:05;;;;;;;;;18.25;14.50;;;;;7.18;79.15;101924.50;5055308;28;45422;-66
2022/11/27 02:26:49;;;;;;;;;23.25;15.25;;;;;7.17;79.02;101926.22;5054748;28;45506;-65
2022/11/27 02:29:21;;;;;;;;;21.25;13.50;;;;;7.15;79.02;101919.19;5058755;28;45231;-65
2022/11/27 02:31:57;;;;;;;;;20.00;14.00;;;;;7.07;78.78;101916.34;5057107;28;45370;-65
2022/11/27 02:34:26;;;;;;;;;17.50;13.75;;;;;7.11;79.15;101918.19;5056128;28;45699;-65
2022/11/27 02:37:00;;;;;;;;;13.00;13.00;;;;;7.09;79.12;101926.78;5055529;28;46291;-66
2022/11/27 02:39:37;;;;;;;;;14.75;11.25;;;;;7.07;79.42;101921.53;5057312;28;45718;-66
2022/11/27 02:42:18;;;;;;;;;13.50;9.75;;;;;7.14;78.91;101920.91;5058409;28;45401;-66
2022/11/27 02:44:49;;;;;;;;;16.00;14.50;;;;;7.11;79.11;101907.75;5055208;28;45385;-67
2022/11/27 02:47:16;;;;;;;;;21.25;14.00;;;;;7.19;79.15;101915.88;5054986;27;45373;-66
2022/11/27 02:49:43;;;;;;;;;13.75;9.75;;;;;7.21;78.65;101920.31;5053801;28;45376;-66
2022/11/27 02:52:12;;;;;;;;;20.00;15.75;;;;;7.14;78.58;101901.78;5058706;28;45315;-67
2022/11/27 02:54:40;;;;;;;;;20.25;12.50;;;;;7.16;79.07;101900.13;5059335;28;45526;-67
2022/11/27 02:57:09;;;;;;;;;15.25;13.50;;;;;7.15;79.05;101900.97;5072414;27;46856;-67
2022/11/27 02:59:36;;;;;;;;;14.50;10.50;;;;;7.09;79.10;101883.38;5054749;28;45361;-66
2022/11/27 03:02:08;;;;;;;;;14.75;14.75;;;;;6.99;79.29;101876.09;5056957;28;45455;-66
2022/11/27 03:04:44;;;;;;;;;16.25;12.00;;;;;6.96;79.62;101870.78;5053730;28;45330;-65
2022/11/27 03:07:25;;;;;;;;;10.75;10.50;;;;;7.01;79.68;101874.44;5054482;28;45515;-67
2022/11/27 03:09:57;;;;;;;;;14.75;12.75;;;;;7.00;79.63;101870.94;5055214;28;45479;-66
2022/11/27 03:12:22;;;;;;;;;18.75;13.25;;;;;6.94;79.92;101862.91;5053666;27;45379;-66
2022/11/27 03:14:48;;;;;;;;;19.00;13.00;;;;;7.01;79.90;101866.59;5058027;28;45511;-66
2022/11/27 03:17:46;;;;;;;;;19.50;11.50;;;;;6.99;79.74;101857.84;5058428;28;45366;-67
2022/11/27 03:20:22;;;;;;;;;12.25;12.25;;;;;7.01;79.87;101864.00;5059460;28;45365;-65
2022/11/27 03:22:48;;;;;;;;;15.50;12.00;;;;;7.00;79.92;101862.25;5054842;28;45593;-67
2022/11/27 03:25:15;;;;;;;;;14.50;11.75;;;;;7.03;79.94;101864.06;5059037;28;45459;-66
2022/11/27 03:27:53;;;;;;;;;16.50;13.75;;;;;7.03;79.56;101851.03;5054079;28;46255;-66
2022/11/27 03:30:18;;;;;;;;;16.00;11.75;;;;;7.04;79.43;101851.06;5054603;28;45313;-65
2022/11/27 03:32:44;;;;;;;;;15.75;12.75;;;;;7.08;79.46;101846.88;5054143;28;45372;-65
2022/11/27 03:35:13;;;;;;;;;18.50;12.50;;;;;7.06;79.74;101838.13;5054174;28;45251;-65
2022/11/27 03:37:39;;;;;;;;;15.75;13.25;;;;;7.06;79.78;101828.56;5052625;28;47233;-65
2022/11/27 03:40:08;;;;;;;;;14.50;11.75;;;;;7.08;79.80;101836.44;5054158;28;45790;-65
2022/11/27 03:43:10;;;;;;;;;13.75;12.75;;;;;7.04;79.63;101821.53;5054206;27;45481;-65
2022/11/27 03:45:50;;;;;;;;;17.75;11.00;;;;;7.00;79.61;101825.78;5058347;27;45722;-66
2022/11/27 03:48:30;;;;;;;;;18.75;13.00;;;;;6.83;79.75;101800.84;5052290;28;47130;-67
2022/11/27 03:51:18;;;;;;;;;18.75;11.25;;;;;6.94;80.06;101812.53;5053839;28;45988;-66
2022/11/27 03:54:07;;;;;;;;;17.75;12.75;;;;;7.05;79.88;101821.59;5054111;28;45482;-66
2022/11/27 03:56:42;;;;;;;;;13.25;10.50;;;;;7.02;79.89;101818.88;5054160;28;45667;-65
2022/11/27 03:59:19;;;;;;;;;12.50;12.25;;;;;7.01;79.90;101812.78;5054407;28;45407;-64
2022/11/27 04:01:44;;;;;;;;;16.75;14.00;;;;;6.96;80.34;101795.25;5053806;28;45336;-66
2022/11/27 04:04:10;;;;;;;;;13.25;12.00;;;;;7.00;79.97;101803.22;5053957;28;45259;-66
2022/11/27 04:06:35;;;;;;;;;16.75;15.75;;;;;6.95;79.94;101804.78;5053556;28;45450;-68
2022/11/27 04:09:01;;;;;;;;;13.75;10.75;;;;;6.98;80.20;101806.59;5053553;28;46639;-66
2022/11/27 04:11:27;;;;;;;;;13.00;12.25;;;;;7.01;80.11;101804.09;5053750;28;45404;-67
2022/11/27 04:13:52;;;;;;;;;15.00;10.75;;;;;6.96;79.96;101805.66;5053866;28;45436;-66
2022/11/27 04:16:18;;;;;;;;;15.50;11.50;;;;;7.01;79.56;101812.78;5054155;28;45584;-66
2022/11/27 04:18:44;;;;;;;;;15.75;10.75;;;;;7.07;79.88;101806.91;5054657;28;46930;-67
2022/11/27 04:21:11;;;;;;;;;14.25;13.00;;;;;7.10;79.75;101812.22;5056389;28;45556;-67
2022/11/27 04:23:37;;;;;;;;;17.50;12.25;;;;;7.06;79.77;101797.31;5057956;28;45286;-66
2022/11/27 04:26:04;;;;;;;;;13.50;12.25;;;;;7.10;79.48;101808.72;5053710;28;45416;-66
2022/11/27 04:28:30;;;;;;;;;17.00;10.50;;;;;7.08;79.40;101798.25;5052243;28;47902;-65
2022/11/27 04:30:55;;;;;;;;;13.00;12.25;;;;;7.07;79.68;101798.19;5055302;28;45472;-67
2022/11/27 04:33:22;;;;;;;;;12.00;12.00;;;;;7.10;79.70;101793.97;5055510;28;45825;-66
2022/11/27 04:35:48;;;;;;;;;15.25;12.75;;;;;7.11;80.01;101784.44;5052267;28;45958;-68
2022/11/27 04:38:14;;;;;;;;;14.00;13.00;;;;;7.09;79.70;101779.16;5065317;27;46246;-65
2022/11/27 04:40:39;;;;;;;;;12.75;11.50;;;;;7.12;79.73;101781.91;5047056;28;45389;-65
2022/11/27 04:43:05;;;;;;;;;19.25;15.25;;;;;7.07;79.69;101775.66;5056214;28;45378;-67
2022/11/27 04:45:30;;;;;;;;;16.75;11.00;;;;;7.08;79.68;101784.34;5054140;28;45433;-65
2022/11/27 04:47:56;;;;;;;;;13.25;10.00;;;;;7.06;79.91;101776.47;5055756;28;46585;-69
2022/11/27 04:50:23;;;;;;;;;15.50;12.50;;;;;7.08;79.92;101776.53;5053164;28;45967;-67
2022/11/27 04:52:48;;;;;;;;;12.00;10.25;;;;;7.08;80.00;101761.78;5055140;28;45333;-64
2022/11/27 04:55:14;;;;;;;;;12.75;8.00;;;;;7.03;80.16;101760.75;5057544;28;45377;-68
2022/11/27 04:57:39;;;;;;;;;17.50;11.00;;;;;7.05;80.35;101763.38;5056891;28;46616;-67
2022/11/27 05:00:06;;;;;;;;;14.50;8.25;;;;;6.98;80.29;101744.09;5056766;28;45512;-65
2022/11/27 05:02:32;;;;;;;;;19.25;11.25;;;;;7.06;80.58;101746.94;5056907;28;45455;-65
2022/11/27 05:04:57;;;;;;;;;12.25;10.75;;;;;7.01;80.26;101752.00;5056648;28;45496;-65
2022/11/27 05:07:23;;;;;;;;;16.75;12.50;;;;;6.99;80.15;101741.50;5056419;28;45478;-65
2022/11/27 05:09:49;;;;;;;;;11.50;10.50;;;;;7.04;80.26;101746.88;5061137;28;45404;-66
2022/11/27 05:12:15;;;;;;;;;10.75;8.25;;;;;7.04;80.12;101752.09;5060990;28;45361;-66
2022/11/27 05:14:41;;;;;;;;;11.75;11.00;;;;;6.96;80.50;101748.34;5059020;28;45299;-66
2022/11/27 05:17:06;;;;;;;;;14.50;12.25;;;;;6.96;80.83;101735.34;5056322;28;45898;-67
2022/11/27 05:19:32;;;;;;;;;9.75;8.25;;;;;6.93;80.32;101725.72;5042256;28;45423;-66
2022/11/27 05:21:58;;;;;;;;;11.75;9.00;;;;;6.88;80.54;101718.56;5056684;28;45782;-66
2022/11/27 05:24:26;;;;;;;;;15.75;10.50;;;;;6.87;81.17;101722.00;5056832;28;45904;-66
2022/11/27 05:26:52;;;;;;;;;12.25;10.00;;;;;6.92;80.99;101731.72;5056920;28;46320;-65
2022/11/27 05:29:18;;;;;;;;;14.00;11.75;;;;;6.87;80.63;101711.59;5057349;28;45565;-68
2022/11/27 05:31:44;;;;;;;;;14.75;8.75;;;;;6.95;81.15;101729.25;5072772;28;45468;-67
2022/11/27 05:34:10;;;;;;;;;16.00;10.25;;;;;6.93;81.02;101735.25;5081500;27;45301;-67
2022/11/27 05:36:36;;;;;;;;;13.75;11.25;;;;;6.90;80.79;101727.31;5053994;28;46643;-68
2022/11/27 05:39:05;;;;;;;;;13.75;10.00;;;;;6.83;80.92;101727.94;5060309;28;45688;-67
2022/11/27 05:41:30;;;;;;;;;11.25;9.50;;;;;6.88;81.23;101726.38;5060693;28;45681;-67
2022/11/27 05:43:56;;;;;;;;;14.00;11.75;;;;;7.00;80.62;101732.88;5060358;28;45486;-66
2022/11/27 05:46:22;;;;;;;;;17.00;12.25;;;;;7.02;80.47;101722.50;5060010;28;45823;-66
2022/11/27 05:48:49;;;;;;;;;11.25;10.25;;;;;7.01;80.77;101726.81;5057647;28;45481;-65
2022/11/27 05:51:15;;;;;;;;;9.75;9.00;;;;;7.00;80.67;101726.78;5056098;28;45483;-64
2022/11/27 05:53:40;;;;;;;;;17.75;14.25;;;;;6.96;80.67;101715.38;5056353;28;45396;-64
2022/11/27 05:56:11;;;;;;;;;13.75;12.00;;;;;6.98;80.80;101713.72;5060164;28;45712;-65
2022/11/27 05:58:38;;;;;;;;;10.25;9.00;;;;;7.00;80.68;101712.03;5059938;28;45432;-66
2022/11/27 06:01:05;;;;;;;;;13.50;13.50;;;;;7.05;81.14;101711.28;5060448;28;45427;-68
2022/11/27 06:03:32;;;;;;;;;13.50;12.50;;;;;7.05;81.02;101720.00;5060312;28;45340;-67
2022/11/27 06:05:57;;;;;;;;;15.00;10.50;;;;;7.05;81.01;101727.81;5058911;28;46342;-65
2022/11/27 06:08:23;;;;;;;;;15.25;13.25;;;;;7.05;81.18;101717.41;5055537;28;45351;-65
2022/11/27 06:10:49;;;;;;;;;13.00;11.50;;;;;7.11;80.78;101719.31;5055830;28;45329;-67
2022/11/27 06:13:15;;;;;;;;;15.25;12.00;;;;;7.11;80.54;101709.75;5054992;28;45504;-66
2022/11/27 06:15:41;;;;;;;;;13.00;11.00;;;;;7.13;80.61;101713.31;5055599;28;46001;-66
2022/11/27 06:18:08;;;;;;;;;14.75;12.75;;;;;7.09;80.74;101702.75;5053021;28;45520;-66
2022/11/27 06:20:34;;;;;;;;;14.50;12.50;;;;;7.10;80.94;101707.13;5047298;28;45564;-64
2022/11/27 06:22:59;;;;;;;;;11.25;10.00;;;;;7.14;80.45;101709.88;5055213;28;45463;-65
2022/11/27 06:25:25;;;;;;;;;14.50;12.00;;;;;7.12;80.29;101708.94;5055580;28;45522;-67
2022/11/27 06:27:52;;;;;;;;;15.75;12.75;;;;;7.11;81.25;101703.69;5055004;28;45341;-64
2022/11/27 06:30:17;;;;;;;;;14.00;10.50;;;;;7.17;81.04;101706.50;5054184;28;45929;-65
2022/11/27 06:32:43;;;;;;;;;13.50;8.75;;;;;7.23;80.54;101717.97;5050996;27;45510;-65
2022/11/27 06:35:09;;;;;;;;;13.75;11.75;;;;;7.15;80.52;101710.75;5053611;28;46758;-65
2022/11/27 06:37:35;;;;;;;;;15.50;10.00;;;;;7.16;80.94;101705.59;5055385;28;45636;-66
2022/11/27 06:40:00;;;;;;;;;13.50;13.00;;;;;7.12;80.43;101682.91;5054929;28;45546;-65
2022/11/27 06:42:29;;;;;;;;;11.75;9.75;;;;;6.96;80.86;101652.88;5055372;28;45422;-65
2022/11/27 06:44:55;;;;;;;;;17.50;13.50;;;;;7.09;81.04;101674.97;5055069;28;45522;-64
2022/11/27 06:47:21;;;;;;;;;15.50;13.00;;;;;7.11;80.84;101690.66;5054999;28;45380;-65
2022/11/27 06:49:46;;;;;;;;;13.75;11.25;;;;;7.09;81.32;101679.28;5054054;28;45377;-65
2022/11/27 06:52:12;;;;;;;;;14.50;13.50;;;;;7.11;81.07;101677.63;5053330;28;45456;-64
2022/11/27 06:54:37;;;;;;;;;15.75;15.25;;;;;7.15;80.86;101682.09;5054409;28;46223;-65
2022/11/27 06:57:03;;;;;;;;;13.00;11.25;;;;;7.05;81.12;101661.78;5053522;28;45456;-64
2022/11/27 06:59:29;;;;;;;;;16.75;11.75;;;;;7.09;81.01;101680.16;5067638;28;45550;-65
2022/11/27 07:01:54;;;;;;;;;17.50;15.75;;;;;7.01;81.33;101653.00;5070143;27;45879;-66
2022/11/27 07:04:20;;;;;;;;;22.50;18.50;;;;;7.08;81.24;101660.19;5058978;28;46311;-64
2022/11/27 07:06:45;;;;;;;;;16.25;13.50;;;;;7.08;81.05;101656.69;5059428;28;45439;-64
2022/11/27 07:09:11;;;;;;;;;15.00;10.50;;;;;7.09;81.25;101658.44;5057961;28;45408;-66
2022/11/27 07:11:38;;;;;;;;;15.75;13.00;;;;;7.08;81.28;101654.97;5059126;28;45479;-66
2022/11/27 07:14:05;;;;;;;;;16.00;13.50;;;;;7.16;81.42;101658.69;5055287;28;46247;-64
2022/11/27 07:16:34;;;;;;;;;14.75;10.00;;;;;7.17;81.23;101655.25;5052901;28;45392;-64
2022/11/27 07:19:03;;;;;;;;;15.25;13.50;;;;;7.15;81.09;101643.91;5057457;28;45523;-65
2022/11/27 07:21:29;;;;;;;;;20.75;15.50;;;;;7.12;81.36;101641.22;5059244;28;45563;-66
2022/11/27 07:23:55;;;;;;;;;19.50;14.75;;;;;7.07;80.95;101631.47;5057490;28;47640;-66
2022/11/27 07:26:23;;;;;;;;;8.75;8.75;;;;;7.20;81.10;101646.66;5056543;28;45370;-64
2022/11/27 07:28:49;;;;;;;;;16.50;15.25;;;;;7.15;80.81;101630.00;5055275;28;45472;-64
2022/11/27 07:31:25;;;;;;;;;15.75;13.75;;;;;7.28;80.71;101644.25;5054772;28;45464;-65
2022/11/27 07:33:51;;;;;;;;;17.75;14.75;;;;;7.21;80.78;101636.28;5054870;28;46006;-65
2022/11/27 07:36:22;;;;;;;;;16.50;14.25;;;;;7.19;80.78;101647.50;5052587;28;47082;-65
2022/11/27 07:38:48;;;;;;;;;13.25;12.00;;;;;7.19;81.21;101650.09;5052720;28;46006;-66
2022/11/27 07:41:13;;;;;;;;;13.50;12.75;;;;;7.29;80.84;101653.88;5053901;28;45483;-65
2022/11/27 07:43:40;;;;;;;;;16.25;14.25;;;;;7.25;80.87;101652.88;5053746;28;46142;-65
2022/11/27 07:46:17;;;;;;;;;15.25;11.50;;;;;7.27;81.64;101663.34;5053075;28;45535;-65
2022/11/27 07:48:43;;;;;;;;;16.00;14.25;;;;;7.35;81.07;101660.13;5056948;28;45482;-65
2022/11/27 07:51:11;;;;;;;;;17.75;13.00;;;;;7.19;81.38;101637.97;5058406;28;45420;-66
2022/11/27 07:53:40;;;;;;;;;20.25;14.75;;;;;7.24;81.67;101640.69;5054923;28;46389;-66
2022/11/27 07:56:08;;;;;;;;;18.75;15.25;;;;;7.27;81.71;101648.59;5053038;28;45606;-65
2022/11/27 07:58:33;;;;;;;;;12.00;12.00;;;;;7.30;82.17;101660.84;5052278;28;45379;-65
2022/11/27 08:00:59;;;;;;;;;15.75;15.00;;;;;7.31;82.06;101657.38;5052800;28;45466;-66
2022/11/27 08:03:25;;;;;;;;;16.25;12.25;;;;;7.22;82.21;101642.38;5053968;28;45452;-65
2022/11/27 08:05:51;;;;;;;;;20.00;14.75;;;;;7.30;82.03;101650.41;5054051;28;45379;-66
2022/11/27 08:08:16;;;;;;;;;14.50;12.75;;;;;7.22;82.55;101635.44;5053641;28;45379;-66
2022/11/27 08:10:42;;;;;;;;;17.50;15.75;;;;;7.27;82.58;101645.13;5052392;27;45607;-66
2022/11/27 08:13:08;;;;;;;;;14.25;11.25;;;;;7.37;82.19;101661.06;5049291;28;47747;-65
2022/11/27 08:15:35;;;;;;;;;15.75;14.25;;;;;7.34;82.36;101645.34;5050912;28;45528;-67
2022/11/27 08:18:00;;;;;;;;;12.50;11.50;;;;;7.30;82.22;101627.84;5053915;28;45772;-64
2022/11/27 08:20:26;;;;;;;;;15.00;11.00;;;;;7.41;82.42;101638.59;5055375;28;45329;-66
2022/11/27 08:22:52;;;;;;;;;17.25;12.50;;;;;7.42;81.98;101633.41;5052148;28;47998;-65
2022/11/27 08:25:17;;;;;;;;;18.50;14.00;;;;;7.42;82.27;101629.91;5056758;28;45458;-65
2022/11/27 08:27:43;;;;;;;;;14.75;11.75;;;;;7.47;82.52;101638.75;5056601;28;45551;-65
2022/11/27 08:30:09;;;;;;;;;16.00;12.75;;;;;7.49;81.64;101631.88;5053905;28;45526;-65
2022/11/27 08:32:39;;;;;;;;;12.25;11.25;;;;;7.47;82.55;101622.22;5052226;28;45463;-65
2022/11/27 08:35:05;;;;;;;;;20.00;17.75;;;;;7.41;82.67;101612.53;5048658;27;45453;-64
2022/11/27 08:37:32;;;;;;;;;17.25;14.00;;;;;7.46;82.88;101616.16;5044670;28;45386;-65
2022/11/27 08:39:59;;;;;;;;;19.50;17.00;;;;;7.50;82.24;101622.31;5052625;28;45450;-66
2022/11/27 08:42:24;;;;;;;;;14.25;12.75;;;;;7.50;82.50;101611.88;5040301;28;45570;-65
2022/11/27 08:44:50;;;;;;;;;17.25;12.75;;;;;7.48;82.46;101613.59;5053762;28;45354;-64
2022/11/27 08:47:16;;;;;;;;;13.25;13.25;;;;;7.50;82.55;101607.59;5058149;28;45353;-65
2022/11/27 08:49:42;;;;;;;;;15.00;15.00;;;;;7.51;82.57;101604.13;5055061;28;45340;-65
2022/11/27 08:52:09;;;;;;;;;15.25;15.25;;;;;7.57;82.67;101601.69;5053310;28;45707;-64
2022/11/27 08:54:35;;;;;;;;;22.75;15.75;;;;;7.51;82.23;101588.47;5041845;28;45585;-65
2022/11/27 08:57:01;;;;;;;;;15.25;15.25;;;;;7.59;82.20;101596.50;5052731;28;45380;-65
2022/11/27 08:59:26;;;;;;;;;24.75;17.75;;;;;7.55;82.49;101584.25;5053604;28;45536;-65
2022/11/27 09:01:52;;;;;;;;;16.00;14.00;;;;;7.65;82.38;101596.69;5053582;28;46265;-66
2022/11/27 09:04:17;;;;;;;;;23.00;19.50;;;;;7.65;82.03;101575.84;5053104;28;45357;-64
2022/11/27 09:06:43;;;;;;;;;14.75;12.75;;;;;7.68;82.06;101578.50;5055968;28;45469;-64
2022/11/27 09:09:09;;;;;;;;;18.75;14.25;;;;;7.63;81.80;101570.56;5053583;28;45582;-65
2022/11/27 09:11:35;;;;;;;;;21.00;19.75;;;;;7.64;81.98;101567.13;5052691;27;45439;-66
2022/11/27 09:14:03;;;;;;;;;28.00;18.75;;;;;7.65;82.47;101565.41;5053925;28;45901;-67
2022/11/27 09:16:29;;;;;;;;;18.25;15.75;;;;;7.65;82.63;101568.88;5057594;28;45302;-65
2022/11/27 09:18:56;;;;;;;;;21.00;16.25;;;;;7.63;82.24;101551.44;5041686;28;45346;-66
2022/11/27 09:21:26;;;;;;;;;16.50;14.75;;;;;7.71;82.21;101560.38;5051504;28;45550;-66
2022/11/27 09:23:55;;;;;;;;;24.50;17.00;;;;;7.70;82.28;101562.91;5056821;28;45433;-67
2022/11/27 09:26:22;;;;;;;;;11.25;8.25;;;;;7.61;82.37;101567.03;5055355;28;45503;-65
2022/11/27 09:28:48;;;;;;;;;25.50;17.75;;;;;7.69;82.58;101568.97;5052593;28;45889;-66
2022/11/27 09:31:14;;;;;;;;;24.75;20.75;;;;;7.61;81.98;101554.00;5052073;28;45797;-66
2022/11/27 09:33:41;;;;;;;;;17.75;16.00;;;;;7.68;82.24;101560.25;5052484;28;45444;-66
2022/11/27 09:36:09;;;;;;;;;23.75;18.75;;;;;7.69;82.35;101540.28;5052505;28;45438;-66
2022/11/27 09:38:36;;;;;;;;;23.00;20.25;;;;;7.73;82.15;101549.97;5052871;28;45396;-66
2022/11/27 09:41:24;;;;;;;;;22.50;18.75;;;;;7.65;82.29;101552.38;5070511;27;46726;-65
2022/11/27 09:44:03;;;;;;;;;18.50;16.50;;;;;7.58;82.01;101535.66;5043685;28;45546;-64
2022/11/27 09:46:33;;;;;;;;;18.50;14.25;;;;;7.57;82.45;101510.47;5054623;28;45327;-65
2022/11/27 09:49:03;;;;;;;;;18.50;14.75;;;;;7.68;82.20;101515.94;5060629;28;45421;-68
2022/11/27 09:51:43;;;;;;;;;19.50;17.00;;;;;7.55;82.49;101491.28;5060285;28;45706;-65
2022/11/27 09:54:42;;;;;;;;;19.75;15.75;;;;;7.65;81.78;101488.06;5059011;28;45506;-65
2022/11/27 09:57:15;;;;;;;;;22.00;17.00;;;;;7.71;81.67;101483.84;5054321;28;45412;-65
2022/11/27 10:00:09;;;;;;;;;14.75;14.50;;;;;7.70;81.95;101490.78;5055575;28;45439;-67
2022/11/27 10:02:34;;;;;;;;;18.00;15.00;;;;;7.63;81.76;101481.91;5072095;27;48181;-65
2022/11/27 10:05:05;;;;;;;;;19.75;18.00;;;;;7.66;82.00;101483.72;5050696;28;45549;-65
2022/11/27 10:07:43;;;;;;;;;17.75;14.50;;;;;7.78;81.75;101504.94;5055865;28;46221;-64
2022/11/27 10:10:14;;;;;;;;;22.75;16.00;;;;;7.81;81.39;101506.72;5054904;28;45560;-64
2022/11/27 10:13:02;;;;;;;;;12.75;11.00;;;;;7.83;82.21;101507.63;5057845;28;45383;-66
2022/11/27 10:15:41;;;;;;;;;19.50;15.75;;;;;7.84;81.29;101512.00;5053759;28;45759;-65
2022/11/27 10:18:14;;;;;;;;;15.50;15.00;;;;;7.92;81.00;101512.19;5049109;28;45651;-64
2022/11/27 10:20:56;;;;;;;;;18.00;15.00;;;;;7.86;80.74;101502.50;5048123;28;45449;-65
2022/11/27 10:23:45;;;;;;;;;22.50;19.00;;;;;7.91;80.82;101506.09;5055566;28;45740;-65
2022/11/27 10:26:37;;;;;;;;;19.50;17.50;;;;;7.94;81.35;101511.38;5045561;28;45491;-67
2022/11/27 10:29:09;;;;;;;;;18.25;14.50;;;;;8.02;80.70;101504.66;5050306;28;45658;-68
2022/11/27 10:31:47;;;;;;;;;23.75;18.00;;;;;8.00;80.32;101481.97;5069539;28;45396;-64
2022/11/27 10:34:35;;;;;;;;;14.00;14.00;;;;;8.11;80.63;101487.44;5047943;28;46365;-66
2022/11/27 10:37:57;;;;;;;;;13.75;13.00;;;;;8.25;80.14;101483.44;5088464;27;45475;-66
2022/11/27 10:40:30;;;;;;;;;22.50;15.00;;;;;8.24;80.27;101474.72;5050638;28;45931;-67
2022/11/27 10:43:09;;;;;;;;;19.75;18.50;;;;;8.21;78.84;101474.66;5074990;28;45414;-67
2022/11/27 10:45:53;;;;;;;;;17.75;15.00;;;;;8.21;79.75;101471.16;5074405;28;45521;-67
2022/11/27 10:48:19;;;;;;;;;17.25;13.75;;;;;8.24;79.18;101466.91;5073890;28;46408;-66
2022/11/27 10:50:46;;;;;;;;;20.75;18.00;;;;;8.20;79.55;101462.44;5074403;28;45520;-65
2022/11/27 10:53:20;;;;;;;;;22.00;18.25;;;;;8.33;79.57;101460.13;5070699;28;45548;-66
2022/11/27 10:56:12;;;;;;;;;20.75;14.75;;;;;8.38;80.03;101451.56;5065932;28;45496;-66
2022/11/27 10:58:50;;;;;;;;;21.25;15.00;;;;;8.45;79.29;101453.50;5070174;28;48029;-65
2022/11/27 11:01:19;;;;;;;;;19.25;14.50;;;;;8.50;78.59;101461.44;5073621;28;45799;-65
2022/11/27 11:03:45;;;;;;;;;19.00;16.25;;;;;8.45;77.71;101453.50;5085864;27;45428;-68
2022/11/27 11:06:24;;;;;;;;;22.25;18.50;;;;;8.46;78.00;101460.47;5068739;27;45538;-63
2022/11/27 11:09:06;;;;;;;;;19.50;16.00;;;;;8.46;78.18;101451.75;5048053;28;45556;-64
2022/11/27 11:11:31;;;;;;;;;21.25;16.25;;;;;8.41;77.99;101437.72;5049532;28;45431;-65
2022/11/27 11:13:57;;;;;;;;;22.50;17.75;;;;;8.49;78.07;101436.16;5048822;28;45545;-66
2022/11/27 11:16:29;;;;;;;;;16.75;15.75;;;;;8.60;77.85;101445.09;5055888;28;46041;-65
2022/11/27 11:19:00;;;;;;;;;14.25;13.50;;;;;8.64;77.89;101438.22;5049211;28;46099;-65
2022/11/27 11:21:40;;;;;;;;;20.00;15.75;;;;;8.74;77.56;101436.69;5053824;28;45507;-66
2022/11/27 11:24:13;;;;;;;;;19.50;15.50;;;;;8.75;77.17;101418.41;5067942;28;45503;-65
2022/11/27 11:26:42;;;;;;;;;22.00;17.25;;;;;8.82;77.12;101419.44;5081882;27;45737;-65
2022/11/27 11:30:00;;;;;;;;;19.75;15.50;;;;;8.81;77.17;101408.09;5066432;28;46350;-65